RYR812 EHEH-EGSS
Flight info
| Callsign | RYR812 |
|---|---|
| Flight time | 0h 46m |
| Altitude | 24000 |
| Route | ABNED L980 XAMAN |
| Aircraft | B738/M-SDE2E3FGHIRWXY/LB1 |
Departure
| Time | 2026-05-06 14:23 |
|---|---|
| Airport | Eindhoven Airport (EHEH) |
Arrival
| Time | 2026-05-06 15:09 |
|---|---|
| Airport | London Stansted Airport (EGSS) |
| Time | Latitude | Longitude | Altitude | Speed | Heading |
|---|---|---|---|---|---|
| 2026-05-06 13:55 | 51.45821 | 5.39017 | 70 ft | 0 kts | 125° |
| 2026-05-06 14:09 | 51.45823 | 5.39012 | 69 ft | 3 kts | 125° |
| 2026-05-06 14:09 | 51.45838 | 5.38977 | 74 ft | 4 kts | 125° |
| 2026-05-06 14:09 | 51.45851 | 5.38947 | 74 ft | 4 kts | 130° |
| 2026-05-06 14:09 | 51.45870 | 5.38932 | 69 ft | 4 kts | 193° |
| 2026-05-06 14:10 | 51.45893 | 5.38947 | 64 ft | 2 kts | 215° |
| 2026-05-06 14:10 | 51.45895 | 5.38949 | 67 ft | 1 kts | 215° |
| 2026-05-06 14:12 | 51.45890 | 5.38943 | 74 ft | 3 kts | 215° |
| 2026-05-06 14:12 | 51.45857 | 5.38906 | 74 ft | 9 kts | 215° |
| 2026-05-06 14:13 | 51.45799 | 5.38841 | 70 ft | 10 kts | 220° |
| 2026-05-06 14:13 | 51.45810 | 5.38739 | 70 ft | 10 kts | 304° |
| 2026-05-06 14:13 | 51.45826 | 5.38702 | 71 ft | 0 kts | 305° |
| 2026-05-06 14:14 | 51.45830 | 5.38692 | 71 ft | 3 kts | 305° |
| 2026-05-06 14:14 | 51.45851 | 5.38645 | 72 ft | 7 kts | 305° |
| 2026-05-06 14:15 | 51.45888 | 5.38561 | 71 ft | 11 kts | 306° |
| 2026-05-06 14:15 | 51.45943 | 5.38441 | 76 ft | 17 kts | 305° |
| 2026-05-06 14:15 | 51.45993 | 5.38323 | 66 ft | 10 kts | 300° |
| 2026-05-06 14:15 | 51.45994 | 5.38279 | 71 ft | 0 kts | 243° |
| 2026-05-06 14:16 | 51.45981 | 5.38258 | 70 ft | 8 kts | 218° |
| 2026-05-06 14:16 | 51.45909 | 5.38176 | 67 ft | 18 kts | 215° |
| 2026-05-06 14:16 | 51.45797 | 5.38050 | 72 ft | 20 kts | 215° |
| 2026-05-06 14:16 | 51.45684 | 5.37924 | 74 ft | 20 kts | 215° |
| 2026-05-06 14:17 | 51.45558 | 5.37782 | 69 ft | 25 kts | 214° |
| 2026-05-06 14:17 | 51.45401 | 5.37606 | 72 ft | 29 kts | 215° |
| 2026-05-06 14:17 | 51.45224 | 5.37408 | 71 ft | 32 kts | 215° |
| 2026-05-06 14:17 | 51.45042 | 5.37204 | 70 ft | 31 kts | 215° |
| 2026-05-06 14:18 | 51.44873 | 5.37015 | 67 ft | 29 kts | 215° |
| 2026-05-06 14:18 | 51.44715 | 5.36838 | 67 ft | 27 kts | 215° |
| 2026-05-06 14:18 | 51.44566 | 5.36672 | 68 ft | 25 kts | 215° |
| 2026-05-06 14:18 | 51.44428 | 5.36516 | 71 ft | 23 kts | 215° |
| 2026-05-06 14:19 | 51.44297 | 5.36371 | 66 ft | 23 kts | 215° |
| 2026-05-06 14:19 | 51.44167 | 5.36224 | 74 ft | 24 kts | 215° |
| 2026-05-06 14:19 | 51.44046 | 5.36088 | 71 ft | 16 kts | 215° |
| 2026-05-06 14:19 | 51.43979 | 5.36095 | 69 ft | 3 kts | 131° |
| 2026-05-06 14:20 | 51.43977 | 5.36100 | 73 ft | 0 kts | 128° |
| 2026-05-06 14:20 | 51.43976 | 5.36100 | 70 ft | 0 kts | 128° |
| 2026-05-06 14:20 | 51.43965 | 5.36123 | 70 ft | 7 kts | 126° |
| 2026-05-06 14:21 | 51.43930 | 5.36207 | 67 ft | 9 kts | 122° |
| 2026-05-06 14:21 | 51.43944 | 5.36253 | 73 ft | 5 kts | 39° |
| 2026-05-06 14:21 | 51.43956 | 5.36267 | 71 ft | 0 kts | 34° |
| 2026-05-06 14:22 | 51.44089 | 5.36417 | 69 ft | 59 kts | 35° |
| 2026-05-06 14:22 | 51.44631 | 5.37025 | 75 ft | 128 kts | 35° |
| 2026-05-06 14:22 | 51.45488 | 5.37973 | 357 ft | 158 kts | 34° |
| 2026-05-06 14:23 | 51.46372 | 5.38979 | 1180 ft | 153 kts | 34° |
| 2026-05-06 14:23 | 51.47253 | 5.39959 | 1935 ft | 157 kts | 33° |
| 2026-05-06 14:23 | 51.48165 | 5.40989 | 2659 ft | 160 kts | 36° |
| 2026-05-06 14:23 | 51.49019 | 5.42031 | 3561 ft | 149 kts | 37° |
| 2026-05-06 14:24 | 51.49851 | 5.43043 | 4177 ft | 159 kts | 34° |
| 2026-05-06 14:24 | 51.50971 | 5.43783 | 4416 ft | 187 kts | 10° |
| 2026-05-06 14:24 | 51.52262 | 5.43526 | 5021 ft | 193 kts | 339° |
| 2026-05-06 14:24 | 51.53339 | 5.42197 | 5613 ft | 202 kts | 309° |
| 2026-05-06 14:25 | 51.53862 | 5.40004 | 5808 ft | 223 kts | 276° |
| 2026-05-06 14:25 | 51.53498 | 5.37507 | 5890 ft | 244 kts | 246° |
| 2026-05-06 14:25 | 51.52829 | 5.34945 | 5862 ft | 252 kts | 251° |
| 2026-05-06 14:25 | 51.52272 | 5.32280 | 6024 ft | 252 kts | 255° |
| 2026-05-06 14:26 | 51.51802 | 5.29576 | 6731 ft | 250 kts | 257° |
| 2026-05-06 14:26 | 51.51378 | 5.26871 | 7556 ft | 249 kts | 258° |
| 2026-05-06 14:26 | 51.50974 | 5.24148 | 8250 ft | 253 kts | 258° |
| 2026-05-06 14:26 | 51.50576 | 5.21425 | 8967 ft | 255 kts | 258° |
| 2026-05-06 14:27 | 51.50367 | 5.18609 | 9599 ft | 258 kts | 279° |
| 2026-05-06 14:27 | 51.50791 | 5.15708 | 9859 ft | 278 kts | 287° |
| 2026-05-06 14:27 | 51.51342 | 5.12629 | 10126 ft | 299 kts | 287° |
| 2026-05-06 14:27 | 51.51947 | 5.09253 | 10308 ft | 322 kts | 287° |
| 2026-05-06 14:28 | 51.52577 | 5.05677 | 10485 ft | 343 kts | 287° |
| 2026-05-06 14:28 | 51.53220 | 5.01957 | 10821 ft | 356 kts | 286° |
| 2026-05-06 14:28 | 51.53877 | 4.98097 | 11426 ft | 360 kts | 286° |
| 2026-05-06 14:28 | 51.54535 | 4.94213 | 12147 ft | 361 kts | 285° |
| 2026-05-06 14:29 | 51.55194 | 4.90310 | 12831 ft | 364 kts | 285° |
| 2026-05-06 14:29 | 51.55857 | 4.86371 | 13509 ft | 367 kts | 285° |
| 2026-05-06 14:29 | 51.56525 | 4.82395 | 14156 ft | 370 kts | 285° |
| 2026-05-06 14:29 | 51.57197 | 4.78380 | 14771 ft | 374 kts | 285° |
| 2026-05-06 14:30 | 51.57874 | 4.74331 | 15420 ft | 377 kts | 284° |
| 2026-05-06 14:30 | 51.58554 | 4.70245 | 16084 ft | 379 kts | 284° |
| 2026-05-06 14:30 | 51.59239 | 4.66127 | 16703 ft | 383 kts | 284° |
| 2026-05-06 14:30 | 51.59928 | 4.61975 | 17309 ft | 386 kts | 284° |
| 2026-05-06 14:31 | 51.60396 | 4.59149 | 17694 ft | 388 kts | 284° |
| 2026-05-06 14:31 | 51.61089 | 4.54949 | 18278 ft | 390 kts | 283° |
| 2026-05-06 14:31 | 51.61789 | 4.50703 | 18829 ft | 394 kts | 283° |
| 2026-05-06 14:31 | 51.62491 | 4.46430 | 19350 ft | 397 kts | 283° |
| 2026-05-06 14:32 | 51.63199 | 4.42120 | 19860 ft | 400 kts | 283° |
| 2026-05-06 14:32 | 51.63903 | 4.37821 | 20366 ft | 403 kts | 283° |
| 2026-05-06 14:32 | 51.64617 | 4.33449 | 20870 ft | 406 kts | 283° |
| 2026-05-06 14:32 | 51.65335 | 4.29037 | 21334 ft | 409 kts | 283° |
| 2026-05-06 14:33 | 51.66059 | 4.24580 | 21795 ft | 412 kts | 283° |
| 2026-05-06 14:33 | 51.66785 | 4.20100 | 22245 ft | 416 kts | 283° |
| 2026-05-06 14:33 | 51.67516 | 4.15571 | 22691 ft | 418 kts | 283° |
| 2026-05-06 14:33 | 51.68247 | 4.11032 | 23101 ft | 421 kts | 283° |
| 2026-05-06 14:34 | 51.68985 | 4.06435 | 23496 ft | 424 kts | 283° |
| 2026-05-06 14:34 | 51.69724 | 4.01824 | 23866 ft | 426 kts | 283° |
| 2026-05-06 14:34 | 51.70468 | 3.97166 | 23887 ft | 433 kts | 283° |
| 2026-05-06 14:34 | 51.71220 | 3.92454 | 23900 ft | 436 kts | 283° |
| 2026-05-06 14:35 | 51.71971 | 3.87729 | 23894 ft | 433 kts | 283° |
| 2026-05-06 14:35 | 51.72733 | 3.83039 | 23897 ft | 433 kts | 284° |
| 2026-05-06 14:35 | 51.73580 | 3.78375 | 23906 ft | 433 kts | 285° |
| 2026-05-06 14:35 | 51.74463 | 3.73742 | 23910 ft | 433 kts | 285° |
| 2026-05-06 14:36 | 51.75353 | 3.69101 | 23909 ft | 433 kts | 285° |
| 2026-05-06 14:36 | 51.76235 | 3.64465 | 23909 ft | 433 kts | 285° |
| 2026-05-06 14:36 | 51.77109 | 3.59815 | 23912 ft | 433 kts | 285° |
| 2026-05-06 14:36 | 51.77972 | 3.55166 | 23915 ft | 433 kts | 285° |
| 2026-05-06 14:37 | 51.78832 | 3.50501 | 23918 ft | 433 kts | 285° |
| 2026-05-06 14:37 | 51.79689 | 3.45829 | 23917 ft | 433 kts | 285° |
| 2026-05-06 14:37 | 51.80545 | 3.41161 | 23921 ft | 434 kts | 285° |
| 2026-05-06 14:37 | 51.81398 | 3.36488 | 23925 ft | 433 kts | 285° |
| 2026-05-06 14:38 | 51.82249 | 3.31822 | 23928 ft | 434 kts | 285° |
| 2026-05-06 14:38 | 51.83100 | 3.27148 | 23925 ft | 434 kts | 285° |
| 2026-05-06 14:38 | 51.83949 | 3.22463 | 23930 ft | 434 kts | 285° |
| 2026-05-06 14:38 | 51.84728 | 3.17758 | 23926 ft | 433 kts | 278° |
| 2026-05-06 14:39 | 51.84759 | 3.12922 | 23949 ft | 430 kts | 262° |
| 2026-05-06 14:39 | 51.84378 | 3.08131 | 23943 ft | 430 kts | 262° |
| 2026-05-06 14:39 | 51.84028 | 3.03337 | 23937 ft | 430 kts | 263° |
| 2026-05-06 14:39 | 51.83700 | 2.98519 | 23941 ft | 431 kts | 263° |
| 2026-05-06 14:40 | 51.83383 | 2.93707 | 23943 ft | 431 kts | 263° |
| 2026-05-06 14:40 | 51.83070 | 2.88901 | 23946 ft | 431 kts | 263° |
| 2026-05-06 14:40 | 51.82755 | 2.84080 | 23939 ft | 431 kts | 263° |
| 2026-05-06 14:40 | 51.82439 | 2.79267 | 23948 ft | 430 kts | 263° |
| 2026-05-06 14:41 | 51.82121 | 2.74467 | 23950 ft | 430 kts | 263° |
| 2026-05-06 14:41 | 51.81799 | 2.69652 | 23945 ft | 430 kts | 263° |
| 2026-05-06 14:41 | 51.81475 | 2.64853 | 23945 ft | 430 kts | 263° |
| 2026-05-06 14:41 | 51.81147 | 2.60060 | 23950 ft | 429 kts | 263° |
| 2026-05-06 14:42 | 51.80815 | 2.55260 | 23940 ft | 430 kts | 263° |
| 2026-05-06 14:42 | 51.80485 | 2.50512 | 23932 ft | 419 kts | 263° |
| 2026-05-06 14:42 | 51.80163 | 2.45893 | 23934 ft | 409 kts | 263° |
| 2026-05-06 14:42 | 51.79849 | 2.41405 | 23934 ft | 393 kts | 263° |
| 2026-05-06 14:43 | 51.79547 | 2.37100 | 23938 ft | 378 kts | 263° |
| 2026-05-06 14:43 | 51.79255 | 2.32969 | 23932 ft | 363 kts | 263° |
| 2026-05-06 14:43 | 51.78973 | 2.28998 | 23935 ft | 349 kts | 263° |
| 2026-05-06 14:43 | 51.78699 | 2.25171 | 23909 ft | 336 kts | 263° |
| 2026-05-06 14:44 | 51.78434 | 2.21475 | 23727 ft | 330 kts | 263° |
| 2026-05-06 14:44 | 51.78165 | 2.17739 | 22799 ft | 344 kts | 263° |
| 2026-05-06 14:44 | 51.77876 | 2.13774 | 21599 ft | 366 kts | 263° |
| 2026-05-06 14:45 | 51.77253 | 2.05408 | 19868 ft | 382 kts | 263° |
| 2026-05-06 14:45 | 51.76927 | 2.01127 | 19412 ft | 377 kts | 263° |
| 2026-05-06 14:45 | 51.76609 | 1.96991 | 18691 ft | 378 kts | 263° |
| 2026-05-06 14:45 | 51.76272 | 1.92652 | 17554 ft | 391 kts | 263° |
| 2026-05-06 14:46 | 51.75932 | 1.88326 | 16639 ft | 396 kts | 263° |
| 2026-05-06 14:46 | 51.75702 | 1.83909 | 15902 ft | 394 kts | 272° |
| 2026-05-06 14:46 | 51.76254 | 1.79621 | 15269 ft | 390 kts | 292° |
| 2026-05-06 14:46 | 51.77687 | 1.76005 | 15150 ft | 375 kts | 313° |
| 2026-05-06 14:47 | 51.79704 | 1.73504 | 15056 ft | 364 kts | 331° |
| 2026-05-06 14:47 | 51.82095 | 1.72142 | 14579 ft | 366 kts | 347° |
| 2026-05-06 14:47 | 51.84524 | 1.71009 | 14113 ft | 359 kts | 333° |
| 2026-05-06 14:47 | 51.86511 | 1.68694 | 13630 ft | 353 kts | 313° |
| 2026-05-06 14:48 | 51.87985 | 1.65507 | 13154 ft | 354 kts | 305° |
| 2026-05-06 14:48 | 51.89497 | 1.62363 | 12650 ft | 355 kts | 309° |
| 2026-05-06 14:48 | 51.91112 | 1.59335 | 12153 ft | 355 kts | 311° |
| 2026-05-06 14:48 | 51.92744 | 1.56360 | 11651 ft | 353 kts | 311° |
| 2026-05-06 14:49 | 51.94372 | 1.53403 | 11148 ft | 351 kts | 311° |
| 2026-05-06 14:49 | 51.95983 | 1.50456 | 10649 ft | 348 kts | 311° |
| 2026-05-06 14:49 | 51.97580 | 1.47530 | 10162 ft | 345 kts | 311° |
| 2026-05-06 14:49 | 51.99162 | 1.44626 | 10020 ft | 342 kts | 311° |
| 2026-05-06 14:50 | 52.00739 | 1.41720 | 9970 ft | 343 kts | 311° |
| 2026-05-06 14:50 | 52.02310 | 1.38809 | 9964 ft | 343 kts | 311° |
| 2026-05-06 14:50 | 52.03858 | 1.35928 | 9935 ft | 333 kts | 311° |
| 2026-05-06 14:50 | 52.05346 | 1.33149 | 9908 ft | 318 kts | 311° |
| 2026-05-06 14:51 | 52.06768 | 1.30515 | 9870 ft | 302 kts | 311° |
| 2026-05-06 14:51 | 52.08117 | 1.28000 | 9822 ft | 290 kts | 311° |
| 2026-05-06 14:51 | 52.09427 | 1.25547 | 9713 ft | 286 kts | 311° |
| 2026-05-06 14:51 | 52.10706 | 1.23073 | 9673 ft | 286 kts | 303° |
| 2026-05-06 14:52 | 52.11375 | 1.20058 | 9679 ft | 286 kts | 277° |
| 2026-05-06 14:52 | 52.11245 | 1.16881 | 9672 ft | 279 kts | 257° |
| 2026-05-06 14:52 | 52.10754 | 1.13834 | 9676 ft | 278 kts | 255° |
| 2026-05-06 14:52 | 52.10240 | 1.10821 | 9667 ft | 276 kts | 255° |
| 2026-05-06 14:53 | 52.09722 | 1.07821 | 9666 ft | 275 kts | 255° |
| 2026-05-06 14:53 | 52.09208 | 1.04822 | 9665 ft | 275 kts | 255° |
| 2026-05-06 14:53 | 52.08697 | 1.01833 | 9661 ft | 275 kts | 255° |
| 2026-05-06 14:53 | 52.08190 | 0.98840 | 9665 ft | 275 kts | 255° |
| 2026-05-06 14:54 | 52.07689 | 0.95882 | 9660 ft | 275 kts | 255° |
| 2026-05-06 14:54 | 52.07175 | 0.92824 | 9671 ft | 280 kts | 255° |
| 2026-05-06 14:54 | 52.06664 | 0.89800 | 9664 ft | 281 kts | 255° |
| 2026-05-06 14:54 | 52.06153 | 0.86775 | 9660 ft | 275 kts | 255° |
| 2026-05-06 14:55 | 52.05650 | 0.83805 | 9665 ft | 272 kts | 255° |
| 2026-05-06 14:55 | 52.05149 | 0.80852 | 9660 ft | 269 kts | 255° |
| 2026-05-06 14:55 | 52.04655 | 0.77929 | 9650 ft | 259 kts | 255° |
| 2026-05-06 14:55 | 52.04192 | 0.75175 | 9467 ft | 254 kts | 256° |
| 2026-05-06 14:56 | 52.03733 | 0.72411 | 9215 ft | 253 kts | 256° |
| 2026-05-06 14:56 | 52.03245 | 0.69548 | 8631 ft | 267 kts | 255° |
| 2026-05-06 14:56 | 52.02755 | 0.66663 | 8431 ft | 263 kts | 255° |
| 2026-05-06 14:56 | 52.02274 | 0.63846 | 8224 ft | 260 kts | 255° |
| 2026-05-06 14:57 | 52.01795 | 0.61045 | 8031 ft | 256 kts | 254° |
| 2026-05-06 14:57 | 52.01046 | 0.58433 | 7716 ft | 258 kts | 235° |
| 2026-05-06 14:57 | 51.99961 | 0.56092 | 7367 ft | 261 kts | 233° |
| 2026-05-06 14:57 | 51.98854 | 0.53734 | 6985 ft | 265 kts | 233° |
| 2026-05-06 14:58 | 51.97735 | 0.51330 | 6615 ft | 268 kts | 234° |
| 2026-05-06 14:58 | 51.96632 | 0.48941 | 6568 ft | 257 kts | 234° |
| 2026-05-06 14:58 | 51.95591 | 0.46678 | 6601 ft | 244 kts | 234° |
| 2026-05-06 14:58 | 51.94608 | 0.44529 | 6620 ft | 231 kts | 234° |
| 2026-05-06 14:59 | 51.93658 | 0.42472 | 6652 ft | 226 kts | 231° |
| 2026-05-06 14:59 | 51.92521 | 0.40695 | 6586 ft | 231 kts | 223° |
| 2026-05-06 14:59 | 51.91313 | 0.38938 | 6363 ft | 234 kts | 223° |
| 2026-05-06 14:59 | 51.90107 | 0.37174 | 6159 ft | 233 kts | 223° |
| 2026-05-06 15:00 | 51.88905 | 0.35421 | 5890 ft | 233 kts | 223° |
| 2026-05-06 15:00 | 51.87702 | 0.33665 | 5600 ft | 235 kts | 223° |
| 2026-05-06 15:00 | 51.86480 | 0.31881 | 5298 ft | 237 kts | 223° |
| 2026-05-06 15:00 | 51.85253 | 0.30084 | 5006 ft | 237 kts | 223° |
| 2026-05-06 15:01 | 51.84037 | 0.28303 | 4687 ft | 234 kts | 223° |
| 2026-05-06 15:01 | 51.82841 | 0.26548 | 4388 ft | 231 kts | 223° |
| 2026-05-06 15:01 | 51.81675 | 0.24837 | 4170 ft | 220 kts | 223° |
| 2026-05-06 15:01 | 51.80570 | 0.23219 | 3932 ft | 209 kts | 223° |
| 2026-05-06 15:02 | 51.79513 | 0.21670 | 3702 ft | 201 kts | 223° |
| 2026-05-06 15:02 | 51.78494 | 0.20179 | 3438 ft | 194 kts | 224° |
| 2026-05-06 15:02 | 51.77517 | 0.18743 | 3185 ft | 187 kts | 223° |
| 2026-05-06 15:02 | 51.76557 | 0.17348 | 2956 ft | 183 kts | 223° |
| 2026-05-06 15:03 | 51.75625 | 0.15984 | 2754 ft | 180 kts | 223° |
| 2026-05-06 15:03 | 51.74697 | 0.14627 | 2567 ft | 182 kts | 223° |
| 2026-05-06 15:03 | 51.73887 | 0.13100 | 2492 ft | 178 kts | 251° |
| 2026-05-06 15:03 | 51.73853 | 0.11206 | 2497 ft | 168 kts | 294° |
| 2026-05-06 15:04 | 51.74378 | 0.09521 | 2515 ft | 170 kts | 301° |
| 2026-05-06 15:04 | 51.74996 | 0.07881 | 2505 ft | 171 kts | 307° |
| 2026-05-06 15:04 | 51.75807 | 0.06541 | 2473 ft | 166 kts | 339° |
| 2026-05-06 15:04 | 51.76876 | 0.06628 | 2502 ft | 158 kts | 32° |
| 2026-05-06 15:05 | 51.77791 | 0.07728 | 2504 ft | 167 kts | 34° |
| 2026-05-06 15:05 | 51.78714 | 0.08852 | 2496 ft | 165 kts | 39° |
| 2026-05-06 15:05 | 51.79539 | 0.10033 | 2477 ft | 153 kts | 41° |
| 2026-05-06 15:05 | 51.80318 | 0.11197 | 2336 ft | 153 kts | 41° |
| 2026-05-06 15:06 | 51.81095 | 0.12366 | 2132 ft | 151 kts | 41° |
| 2026-05-06 15:06 | 51.81862 | 0.13519 | 1952 ft | 149 kts | 41° |
| 2026-05-06 15:06 | 51.82599 | 0.14626 | 1743 ft | 143 kts | 41° |
| 2026-05-06 15:06 | 51.83316 | 0.15696 | 1559 ft | 140 kts | 40° |
| 2026-05-06 15:07 | 51.84045 | 0.16751 | 1383 ft | 140 kts | 40° |
| 2026-05-06 15:07 | 51.84771 | 0.17808 | 1208 ft | 141 kts | 40° |
| 2026-05-06 15:07 | 51.85485 | 0.18908 | 1013 ft | 143 kts | 44° |
| 2026-05-06 15:07 | 51.86192 | 0.20039 | 800 ft | 142 kts | 42° |
| 2026-05-06 15:08 | 51.86922 | 0.21132 | 596 ft | 144 kts | 41° |
| 2026-05-06 15:08 | 51.87663 | 0.22226 | 385 ft | 143 kts | 41° |
| 2026-05-06 15:08 | 51.88365 | 0.23274 | 331 ft | 123 kts | 43° |
| 2026-05-06 15:08 | 51.88897 | 0.24075 | 334 ft | 88 kts | 43° |
| 2026-05-06 15:09 | 51.89177 | 0.24496 | 333 ft | 34 kts | 43° |
| 2026-05-06 15:09 | 51.89240 | 0.24716 | 338 ft | 22 kts | 108° |
| 2026-05-06 15:09 | 51.89196 | 0.24815 | 338 ft | 0 kts | 134° |
| 2026-05-06 15:10 | 51.89187 | 0.24830 | 341 ft | 5 kts | 134° |
| 2026-05-06 15:10 | 51.89153 | 0.24902 | 344 ft | 11 kts | 106° |
| 2026-05-06 15:10 | 51.89193 | 0.25009 | 346 ft | 12 kts | 39° |
| 2026-05-06 15:11 | 51.89239 | 0.25111 | 343 ft | 11 kts | 66° |
| 2026-05-06 15:11 | 51.89212 | 0.25219 | 346 ft | 11 kts | 130° |
| 2026-05-06 15:11 | 51.89161 | 0.25309 | 348 ft | 11 kts | 133° |
| 2026-05-06 15:11 | 51.89107 | 0.25400 | 339 ft | 9 kts | 131° |
| 2026-05-06 15:12 | 51.89089 | 0.25432 | 337 ft | 3 kts | 133° |
| 2026-05-06 15:12 | 51.89074 | 0.25458 | 335 ft | 3 kts | 132° |
| 2026-05-06 15:12 | 51.89057 | 0.25488 | 339 ft | 4 kts | 133° |
| 2026-05-06 15:12 | 51.89031 | 0.25533 | 334 ft | 6 kts | 133° |
| 2026-05-06 15:13 | 51.89000 | 0.25587 | 339 ft | 6 kts | 133° |
| 2026-05-06 15:13 | 51.88970 | 0.25640 | 337 ft | 6 kts | 132° |
| 2026-05-06 15:13 | 51.88950 | 0.25658 | 337 ft | 4 kts | 178° |
| 2026-05-06 15:13 | 51.88908 | 0.25610 | 337 ft | 4 kts | 223° |
| 2026-05-06 15:14 | 51.88904 | 0.25604 | 333 ft | 0 kts | 223° |